Emmanuel Tomasos — C6SS7 — position and weather

sailwx.info

Track history (hours):
 
Tides and Currents Weather Stations Pressure Air Temp Water Temp Dewpoint Dewpoint Depression Visibility Wind Speed Wind Dir Waves Ship Positions

Emmanuel Tomasos

Last reported at 2014-Aug-30 18:32 UTC. Time now 2014-Sep-01 23:48 UTC.
Position N 33°56' E 035°34'.

Length 181 m; draft 8.7 m.

Type: Tanker. MMSI: 311459000.

Date/timePositionNaut miles runAvg speedWind from/ knotsBaromVisibWave heightAir tempDewpointWater temp
2014-Aug-30 18:32N 33°56' E 035°34'0 0.0
2014-Aug-30 17:09N 33°56' E 035°34'0 0.0
2014-Aug-30 14:32N 33°56' E 035°34'52 5.8
2014-Aug-30 05:33N 33°57' E 034°32'1313.4
2014-Aug-30 04:33N 33°58' E 034°15'1613.4
2014-Aug-30 03:23N 33°59' E 033°56'1113.2
2014-Aug-30 02:31N 33°60' E 033°43'1713.2
2014-Aug-30 01:13N 34°02' E 033°22'1013.2
2014-Aug-30 00:29N 34°03' E 033°10'1413.3
2014-Aug-29 23:27N 34°04' E 032°54'1313.3
2014-Aug-29 22:27N 34°05' E 032°38'1513.3
2014-Aug-29 21:21N 34°05' E 032°21'1313.5
2014-Aug-29 20:22N 34°06' E 032°05'1213.5
2014-Aug-29 19:30N 34°07' E 031°50'1813.7
2014-Aug-29 18:11N 34°09' E 031°29'914.0
2014-Aug-29 17:33N 34°09' E 031°18'1413.8
2014-Aug-29 16:33N 34°10' E 031°01'1513.6
2014-Aug-29 15:29N 34°11' E 030°44'1313.5
2014-Aug-29 14:33N 34°13' E 030°29'1513.4
2014-Aug-29 13:26N 34°14' E 030°11'1213.5
2014-Aug-29 12:33N 34°15' E 029°56'1313.5
2014-Aug-29 11:33N 34°16' E 029°40'1413.5
2014-Aug-29 10:33N 34°17' E 029°24'69513.4
2014-Aug-27 06:33N 36°15' E 015°25'1413.7
2014-Aug-27 05:33N 36°19' E 015°09'1413.9
2014-Aug-27 04:33N 36°22' E 014°52'1414.0
2014-Aug-27 03:34N 36°25' E 014°35'1413.8
2014-Aug-27 02:34N 36°32' E 014°20'1413.6
2014-Aug-27 01:33N 36°39' E 014°05'1313.2
2014-Aug-27 00:33N 36°46' E 013°51'1312.8
2014-Aug-26 23:34N 36°52' E 013°37'1313.0
2014-Aug-26 22:34N 36°58' E 013°23'1312.8
2014-Aug-26 21:33N 37°04' E 013°09'1312.8
2014-Aug-26 20:32N 37°11' E 012°55'11313.7
2014-Aug-26 12:16N 38°05' E 010°49'1013.4
2014-Aug-26 11:33N 38°09' E 010°38'1413.5
2014-Aug-26 10:33N 38°13' E 010°22'1313.3
2014-Aug-26 09:33N 38°18' E 010°06'1413.5
2014-Aug-26 08:33N 38°23' E 009°50'1313.6
2014-Aug-26 07:33N 38°27' E 009°33'1413.5
2014-Aug-26 06:33N 38°32' E 009°17'1313.3
2014-Aug-26 05:33N 38°36' E 009°01'1313.1
2014-Aug-26 04:33N 38°41' E 008°46'1313.3
2014-Aug-26 03:33N 38°45' E 008°30'1313.3
2014-Aug-26 02:33N 38°50' E 008°14'1312.7
2014-Aug-26 01:33N 38°59' E 008°02'1513.6
2014-Aug-26 00:27N 39°12' E 007°53'1213.4
2014-Aug-25 23:33N 39°22' E 007°45'1313.4
2014-Aug-25 22:33N 39°34' E 007°37'13713.7
2014-Aug-25 12:33N 41°35' E 006°11'1313.3
2014-Aug-25 11:33N 41°47' E 006°03'1313.5
2014-Aug-25 10:33N 41°59' E 005°54'1413.6
2014-Aug-25 09:33N 42°11' E 005°45'1413.9
2014-Aug-25 08:33N 42°23' E 005°37'1413.6
2014-Aug-25 07:33N 42°35' E 005°28'1413.6
2014-Aug-25 06:33N 42°47' E 005°19'1513.3
2014-Aug-25 05:27N 42°60' E 005°09'1213.7
2014-Aug-25 04:33N 43°11' E 005°02'1010.2
2014-Aug-25 03:33N 43°21' E 004°58'3 3.2
2014-Aug-25 02:31N 43°24' E 004°60'0 0.0
2014-Aug-25 01:31N 43°24' E 004°60'0 0.0
2014-Aug-25 00:31N 43°24' E 004°60'0 0.0
2014-Aug-24 23:31N 43°24' E 004°60'0 0.0
2014-Aug-24 22:31N 43°24' E 004°60'0 0.0
2014-Aug-24 21:28N 43°24' E 004°60'0 0.0
2014-Aug-24 20:31N 43°24' E 004°60'0 0.0
2014-Aug-24 19:28N 43°24' E 004°60'0 0.0
2014-Aug-24 18:31N 43°24' E 004°60'0 0.0
2014-Aug-24 17:31N 43°24' E 004°60'0 0.0
2014-Aug-24 16:31N 43°24' E 004°60'0 0.0
2014-Aug-24 15:28N 43°24' E 004°60'0 0.0
2014-Aug-24 14:31N 43°24' E 004°60'0 0.0
2014-Aug-24 13:31N 43°24' E 004°60'0 0.0
2014-Aug-24 12:31N 43°24' E 004°60'0 0.0
2014-Aug-24 11:31N 43°24' E 004°60'0 0.0
2014-Aug-24 10:31N 43°24' E 004°60'0 0.0
2014-Aug-24 09:28N 43°24' E 004°60'0 0.0
2014-Aug-24 08:31N 43°24' E 004°60'0 0.0
2014-Aug-24 07:28N 43°24' E 004°60'0 0.0
2014-Aug-24 06:28N 43°24' E 004°60'0 0.0
2014-Aug-24 05:31N 43°24' E 004°60'0 0.0
2014-Aug-24 04:28N 43°24' E 004°60'0 0.0
2014-Aug-24 03:28N 43°24' E 004°60'0 0.0
2014-Aug-24 02:31N 43°24' E 004°60'0 0.0
2014-Aug-24 01:31N 43°24' E 004°60'0 0.0
2014-Aug-24 00:31N 43°24' E 004°60'0 0.0
2014-Aug-23 23:31N 43°24' E 004°60'0 0.0
2014-Aug-23 22:31N 43°24' E 004°60'0 0.0
2014-Aug-23 21:31N 43°24' E 004°60'0 0.0
2014-Aug-23 20:31N 43°24' E 004°60'0 0.0
2014-Aug-23 19:31N 43°24' E 004°60'86 5.4
2014-Aug-23 03:30N 43°01' E 003°05'0 0.0
2014-Aug-23 02:30N 43°01' E 003°05'0 0.0
2014-Aug-23 01:26N 43°01' E 003°05'0 0.0
2014-Aug-23 00:31N 43°01' E 003°05'0 0.0
2014-Aug-22 23:13N 43°01' E 003°05'0 0.0
2014-Aug-22 19:30N 43°01' E 003°05'0 0.0
2014-Aug-22 18:32N 43°01' E 003°05'0 0.0
2014-Aug-22 15:33N 43°01' E 003°05'0 0.0
2014-Aug-22 14:30N 43°01' E 003°05'0 0.0
2014-Aug-22 13:19N 43°01' E 003°05'0 0.0
2014-Aug-22 12:30N 43°01' E 003°05'0 0.0
2014-Aug-22 11:32N 43°01' E 003°05'0 0.0
2014-Aug-22 04:27N 43°01' E 003°05'0 0.0
2014-Aug-22 01:22N 43°01' E 003°05'0 0.0
2014-Aug-22 00:22N 43°01' E 003°05'0 0.0
2014-Aug-21 23:33N 43°01' E 003°05'0 0.0
2014-Aug-21 20:31N 43°01' E 003°05'0 0.0
2014-Aug-21 19:30N 43°01' E 003°05'0 0.0
2014-Aug-21 18:28N 43°01' E 003°05'0 0.0
2014-Aug-21 17:19N 43°01' E 003°05'0 0.0
2014-Aug-21 15:34N 43°01' E 003°05'0 0.0
2014-Aug-21 12:23N 43°01' E 003°05'0 0.0
2014-Aug-21 11:28N 43°01' E 003°05'0 0.0
2014-Aug-21 06:10N 43°01' E 003°05'0 0.2
2014-Aug-21 05:33N 43°01' E 003°05'1 1.3
2014-Aug-21 04:33N 43°01' E 003°07'0 0.1
2014-Aug-21 03:33N 43°01' E 003°07'0 0.0
2014-Aug-21 02:33N 43°01' E 003°07'0 0.0
2014-Aug-21 01:33N 43°01' E 003°07'0 0.0
2014-Aug-21 00:33N 43°01' E 003°07'0 0.0
2014-Aug-20 23:33N 43°01' E 003°07'0 0.0
2014-Aug-20 22:33N 43°01' E 003°07'0 0.0
2014-Aug-20 21:33N 43°01' E 003°07'0 0.0
2014-Aug-20 20:33N 43°01' E 003°07'0 0.0
2014-Aug-20 19:33N 43°01' E 003°07'0 0.0
2014-Aug-20 18:33N 43°01' E 003°07'  
Track history (hours):
 
Tides and Currents Weather Stations Pressure Air Temp Water Temp Dewpoint Dewpoint Depression Visibility Wind Speed Wind Dir Waves Ship Positions

Emmanuel Tomasos

Last reported at 2014-Aug-30 18:32 UTC. Time now 2014-Sep-01 23:48 UTC.
Position N 33°56' E 035°34'.

Length 181 m; draft 8.7 m.

Type: Tanker. MMSI: 311459000.

Date/timePositionNaut miles runAvg speedWind from/ knotsBaromVisibWave heightAir tempDewpointWater temp
2014-Aug-30 18:32N 33°56' E 035°34'0 0.0
2014-Aug-30 17:09N 33°56' E 035°34'0 0.0
2014-Aug-30 14:32N 33°56' E 035°34'52 5.8
2014-Aug-30 05:33N 33°57' E 034°32'1313.4
2014-Aug-30 04:33N 33°58' E 034°15'1613.4
2014-Aug-30 03:23N 33°59' E 033°56'1113.2
2014-Aug-30 02:31N 33°60' E 033°43'1713.2
2014-Aug-30 01:13N 34°02' E 033°22'1013.2
2014-Aug-30 00:29N 34°03' E 033°10'1413.3
2014-Aug-29 23:27N 34°04' E 032°54'1313.3
2014-Aug-29 22:27N 34°05' E 032°38'1513.3
2014-Aug-29 21:21N 34°05' E 032°21'1313.5
2014-Aug-29 20:22N 34°06' E 032°05'1213.5
2014-Aug-29 19:30N 34°07' E 031°50'1813.7
2014-Aug-29 18:11N 34°09' E 031°29'914.0
2014-Aug-29 17:33N 34°09' E 031°18'1413.8
2014-Aug-29 16:33N 34°10' E 031°01'1513.6
2014-Aug-29 15:29N 34°11' E 030°44'1313.5
2014-Aug-29 14:33N 34°13' E 030°29'1513.4
2014-Aug-29 13:26N 34°14' E 030°11'1213.5
2014-Aug-29 12:33N 34°15' E 029°56'1313.5
2014-Aug-29 11:33N 34°16' E 029°40'1413.5
2014-Aug-29 10:33N 34°17' E 029°24'69513.4
2014-Aug-27 06:33N 36°15' E 015°25'1413.7
2014-Aug-27 05:33N 36°19' E 015°09'1413.9
2014-Aug-27 04:33N 36°22' E 014°52'1414.0
2014-Aug-27 03:34N 36°25' E 014°35'1413.8
2014-Aug-27 02:34N 36°32' E 014°20'1413.6
2014-Aug-27 01:33N 36°39' E 014°05'1313.2
2014-Aug-27 00:33N 36°46' E 013°51'1312.8
2014-Aug-26 23:34N 36°52' E 013°37'1313.0
2014-Aug-26 22:34N 36°58' E 013°23'1312.8
2014-Aug-26 21:33N 37°04' E 013°09'1312.8
2014-Aug-26 20:32N 37°11' E 012°55'11313.7
2014-Aug-26 12:16N 38°05' E 010°49'1013.4
2014-Aug-26 11:33N 38°09' E 010°38'1413.5
2014-Aug-26 10:33N 38°13' E 010°22'1313.3
2014-Aug-26 09:33N 38°18' E 010°06'1413.5
2014-Aug-26 08:33N 38°23' E 009°50'1313.6
2014-Aug-26 07:33N 38°27' E 009°33'1413.5
2014-Aug-26 06:33N 38°32' E 009°17'1313.3
2014-Aug-26 05:33N 38°36' E 009°01'1313.1
2014-Aug-26 04:33N 38°41' E 008°46'1313.3
2014-Aug-26 03:33N 38°45' E 008°30'1313.3
2014-Aug-26 02:33N 38°50' E 008°14'1312.7
2014-Aug-26 01:33N 38°59' E 008°02'1513.6
2014-Aug-26 00:27N 39°12' E 007°53'1213.4
2014-Aug-25 23:33N 39°22' E 007°45'1313.4
2014-Aug-25 22:33N 39°34' E 007°37'13713.7
2014-Aug-25 12:33N 41°35' E 006°11'1313.3
2014-Aug-25 11:33N 41°47' E 006°03'1313.5
2014-Aug-25 10:33N 41°59' E 005°54'1413.6
2014-Aug-25 09:33N 42°11' E 005°45'1413.9
2014-Aug-25 08:33N 42°23' E 005°37'1413.6
2014-Aug-25 07:33N 42°35' E 005°28'1413.6
2014-Aug-25 06:33N 42°47' E 005°19'1513.3
2014-Aug-25 05:27N 42°60' E 005°09'1213.7
2014-Aug-25 04:33N 43°11' E 005°02'1010.2
2014-Aug-25 03:33N 43°21' E 004°58'3 3.2
2014-Aug-25 02:31N 43°24' E 004°60'0 0.0
2014-Aug-25 01:31N 43°24' E 004°60'0 0.0
2014-Aug-25 00:31N 43°24' E 004°60'0 0.0
2014-Aug-24 23:31N 43°24' E 004°60'0 0.0
2014-Aug-24 22:31N 43°24' E 004°60'0 0.0
2014-Aug-24 21:28N 43°24' E 004°60'0 0.0
2014-Aug-24 20:31N 43°24' E 004°60'0 0.0
2014-Aug-24 19:28N 43°24' E 004°60'0 0.0
2014-Aug-24 18:31N 43°24' E 004°60'0 0.0
2014-Aug-24 17:31N 43°24' E 004°60'0 0.0
2014-Aug-24 16:31N 43°24' E 004°60'0 0.0
2014-Aug-24 15:28N 43°24' E 004°60'0 0.0
2014-Aug-24 14:31N 43°24' E 004°60'0 0.0
2014-Aug-24 13:31N 43°24' E 004°60'0 0.0
2014-Aug-24 12:31N 43°24' E 004°60'0 0.0
2014-Aug-24 11:31N 43°24' E 004°60'0 0.0
2014-Aug-24 10:31N 43°24' E 004°60'0 0.0
2014-Aug-24 09:28N 43°24' E 004°60'0 0.0
2014-Aug-24 08:31N 43°24' E 004°60'0 0.0
2014-Aug-24 07:28N 43°24' E 004°60'0 0.0
2014-Aug-24 06:28N 43°24' E 004°60'0 0.0
2014-Aug-24 05:31N 43°24' E 004°60'0 0.0
2014-Aug-24 04:28N 43°24' E 004°60'0 0.0
2014-Aug-24 03:28N 43°24' E 004°60'0 0.0
2014-Aug-24 02:31N 43°24' E 004°60'0 0.0
2014-Aug-24 01:31N 43°24' E 004°60'0 0.0
2014-Aug-24 00:31N 43°24' E 004°60'0 0.0
2014-Aug-23 23:31N 43°24' E 004°60'0 0.0
2014-Aug-23 22:31N 43°24' E 004°60'0 0.0
2014-Aug-23 21:31N 43°24' E 004°60'0 0.0
2014-Aug-23 20:31N 43°24' E 004°60'0 0.0
2014-Aug-23 19:31N 43°24' E 004°60'86 5.4
2014-Aug-23 03:30N 43°01' E 003°05'0 0.0
2014-Aug-23 02:30N 43°01' E 003°05'0 0.0
2014-Aug-23 01:26N 43°01' E 003°05'0 0.0
2014-Aug-23 00:31N 43°01' E 003°05'0 0.0
2014-Aug-22 23:13N 43°01' E 003°05'0 0.0
2014-Aug-22 19:30N 43°01' E 003°05'0 0.0
2014-Aug-22 18:32N 43°01' E 003°05'0 0.0
2014-Aug-22 15:33N 43°01' E 003°05'0 0.0
2014-Aug-22 14:30N 43°01' E 003°05'0 0.0
2014-Aug-22 13:19N 43°01' E 003°05'0 0.0
2014-Aug-22 12:30N 43°01' E 003°05'0 0.0
2014-Aug-22 11:32N 43°01' E 003°05'0 0.0
2014-Aug-22 04:27N 43°01' E 003°05'0 0.0
2014-Aug-22 01:22N 43°01' E 003°05'0 0.0
2014-Aug-22 00:22N 43°01' E 003°05'0 0.0
2014-Aug-21 23:33N 43°01' E 003°05'0 0.0
2014-Aug-21 20:31N 43°01' E 003°05'0 0.0
2014-Aug-21 19:30N 43°01' E 003°05'0 0.0
2014-Aug-21 18:28N 43°01' E 003°05'0 0.0
2014-Aug-21 17:19N 43°01' E 003°05'0 0.0
2014-Aug-21 15:34N 43°01' E 003°05'0 0.0
2014-Aug-21 12:23N 43°01' E 003°05'0 0.0
2014-Aug-21 11:28N 43°01' E 003°05'0 0.0
2014-Aug-21 06:10N 43°01' E 003°05'0 0.2
2014-Aug-21 05:33N 43°01' E 003°05'1 1.3
2014-Aug-21 04:33N 43°01' E 003°07'0 0.1
2014-Aug-21 03:33N 43°01' E 003°07'0 0.0
2014-Aug-21 02:33N 43°01' E 003°07'0 0.0
2014-Aug-21 01:33N 43°01' E 003°07'0 0.0
2014-Aug-21 00:33N 43°01' E 003°07'0 0.0
2014-Aug-20 23:33N 43°01' E 003°07'0 0.0
2014-Aug-20 22:33N 43°01' E 003°07'0 0.0
2014-Aug-20 21:33N 43°01' E 003°07'0 0.0
2014-Aug-20 20:33N 43°01' E 003°07'0 0.0
2014-Aug-20 19:33N 43°01' E 003°07'0 0.0
2014-Aug-20 18:33N 43°01' E 003°07'  

Dump ship's entire track history